createdAt,value
2022-07-30T00:02:53.057Z,89.22
2022-07-30T00:08:24.944Z,88.83
2022-07-30T00:13:56.524Z,88.9
2022-07-30T00:19:28.254Z,89.38
2022-07-30T00:24:59.984Z,89.95
2022-07-30T00:30:31.780Z,90.09
2022-07-30T00:36:03.369Z,89.08
2022-07-30T00:41:35.123Z,88.39
2022-07-30T00:47:06.857Z,88.23
2022-07-30T00:52:38.552Z,88.19
2022-07-30T00:58:14.707Z,87.68
2022-07-30T01:03:46.431Z,87.52
2022-07-30T01:09:18.209Z,87.58
2022-07-30T01:14:49.881Z,86.93
2022-07-30T01:20:21.581Z,86.65
2022-07-30T01:25:54.455Z,86.25
2022-07-30T01:31:25.103Z,86.33
2022-07-30T01:36:56.777Z,86.42
2022-07-30T01:42:28.457Z,86.22
2022-07-30T01:48:00.643Z,86.03
2022-07-30T01:53:31.909Z,85.58
2022-07-30T01:59:08.045Z,85.03
2022-07-30T02:04:39.757Z,85.1
2022-07-30T02:10:11.461Z,85.25
2022-07-30T02:15:43.216Z,85.21
2022-07-30T02:21:14.929Z,85.98
2022-07-30T02:26:46.834Z,85.66
2022-07-30T02:32:18.503Z,85.94
2022-07-30T02:37:50.097Z,86.37
2022-07-30T02:43:21.894Z,86.24
2022-07-30T02:48:53.670Z,86.06
2022-07-30T02:54:25.385Z,86.37
2022-07-30T03:00:03.558Z,86.78
2022-07-30T03:05:35.277Z,86.47
2022-07-30T03:11:06.920Z,86.74
2022-07-30T03:16:38.893Z,86.71
2022-07-30T03:22:10.408Z,86.53
2022-07-30T03:27:42.117Z,86.46
2022-07-30T03:33:14.996Z,86.56
2022-07-30T03:38:45.552Z,86.86
2022-07-30T03:44:17.274Z,87.19
2022-07-30T03:49:49.010Z,86.65
2022-07-30T03:55:20.886Z,86.21
2022-07-30T04:00:56.774Z,85.75
2022-07-30T04:06:28.465Z,85.88
2022-07-30T04:12:00.257Z,85.91
2022-07-30T04:17:32.244Z,85.98
2022-07-30T04:23:03.729Z,85.54
2022-07-30T04:28:35.375Z,85.78
2022-07-30T04:34:07.131Z,86.14
2022-07-30T04:39:38.934Z,85.88
2022-07-30T04:45:12.635Z,86.92
2022-07-30T04:50:42.307Z,86.58
2022-07-30T04:56:14.062Z,86.14
2022-07-30T05:01:50.523Z,86.29
2022-07-30T05:07:22.877Z,86.08
2022-07-30T05:12:53.666Z,86.58
2022-07-30T05:18:25.400Z,85.81
2022-07-30T05:23:57.211Z,85.54
2022-07-30T05:29:30.354Z,85.47
2022-07-30T05:35:00.534Z,85.36
2022-07-30T05:40:32.350Z,85.28
2022-07-30T05:46:04.136Z,84.4
2022-07-30T05:51:35.779Z,83.53
2022-07-30T05:57:07.426Z,82.26
2022-07-30T06:02:45.549Z,81.21
2022-07-30T06:08:17.310Z,79.93
2022-07-30T06:13:49.030Z,78.85
2022-07-30T06:19:20.875Z,77.78
2022-07-30T06:24:52.516Z,77.61
2022-07-30T06:30:31.691Z,77.05
2022-07-30T06:35:55.973Z,75.76
2022-07-30T06:41:27.691Z,74.46
2022-07-30T06:47:07.373Z,73.18
2022-07-30T06:52:31.047Z,72.89
2022-07-30T06:58:02.787Z,72.68
2022-07-30T07:03:40.954Z,73.12
2022-07-30T07:09:10.634Z,72.47
2022-07-30T07:14:42.452Z,72.46
2022-07-30T07:20:14.255Z,71.87
2022-07-30T07:25:45.840Z,71.47
2022-07-30T07:32:08.026Z,71.07
2022-07-30T07:36:49.300Z,70.76
2022-07-30T07:42:20.992Z,70.28
2022-07-30T07:47:53.690Z,69.8
2022-07-30T07:53:24.439Z,67.41
2022-07-30T07:58:57.231Z,67.89
2022-07-30T08:04:34.322Z,67.13
2022-07-30T08:10:06.009Z,67.21
2022-07-30T08:15:37.750Z,66.61
2022-07-30T08:21:09.557Z,65.92
2022-07-30T08:26:41.228Z,64.95
2022-07-30T08:32:12.943Z,64.69
2022-07-30T08:37:44.592Z,63.57
2022-07-30T08:43:16.511Z,63.85
2022-07-30T08:48:48.079Z,62.69
2022-07-30T08:54:19.904Z,62.55
2022-07-30T09:00:01.994Z,62.88
2022-07-30T09:05:29.600Z,61.42
2022-07-30T09:11:01.703Z,61.47
2022-07-30T09:16:33.076Z,60.53
2022-07-30T09:22:04.887Z,60.81
2022-07-30T09:27:36.587Z,61.67
2022-07-30T09:33:08.289Z,59.56
2022-07-30T09:38:40.307Z,59.0
2022-07-30T09:44:11.763Z,59.46
2022-07-30T09:49:47.580Z,58.67
2022-07-30T09:55:15.237Z,58.13
2022-07-30T10:00:47.486Z,58.26
2022-07-30T10:06:27.040Z,58.59
2022-07-30T10:11:54.957Z,57.72
2022-07-30T10:17:30.970Z,57.3
2022-07-30T10:22:58.437Z,57.35
2022-07-30T10:28:36.997Z,57.83
2022-07-30T10:34:01.922Z,57.94
2022-07-30T10:39:35.087Z,57.1
2022-07-30T10:45:05.353Z,56.91
2022-07-30T10:50:37.064Z,56.77
2022-07-30T10:56:10.162Z,57.13
2022-07-30T11:01:40.730Z,57.46
2022-07-30T11:07:17.813Z,57.1
2022-07-30T11:12:53.301Z,55.65
2022-07-30T11:18:25.225Z,56.16
2022-07-30T11:23:56.787Z,54.28
2022-07-30T11:29:33.377Z,53.52
2022-07-30T11:34:55.605Z,53.63
2022-07-30T11:40:27.059Z,53.69
2022-07-30T11:45:58.761Z,53.34
2022-07-30T11:51:30.509Z,53.55
2022-07-30T11:57:05.133Z,52.87
2022-07-30T12:02:33.981Z,52.98
2022-07-30T12:08:33.407Z,53.68
2022-07-30T12:13:46.288Z,52.6
2022-07-30T12:19:13.527Z,52.28
2022-07-30T12:24:45.302Z,52.27
2022-07-30T12:30:17.074Z,50.83
2022-07-30T12:35:48.974Z,52.16
2022-07-30T12:41:20.613Z,53.0
2022-07-30T12:46:52.326Z,51.22
2022-07-30T12:52:29.287Z,51.31
2022-07-30T12:57:56.049Z,51.56
2022-07-30T13:03:27.828Z,51.46
2022-07-30T13:09:06.062Z,52.08
2022-07-30T13:14:37.780Z,51.37
2022-07-30T13:20:09.604Z,52.05
2022-07-30T13:25:41.239Z,51.19
2022-07-30T13:31:13.381Z,51.39
2022-07-30T13:36:45.307Z,51.73
2022-07-30T13:42:16.983Z,51.38
2022-07-30T13:47:48.788Z,51.96
2022-07-30T13:53:20.466Z,51.5
2022-07-30T13:58:52.193Z,51.24
2022-07-30T14:04:23.982Z,50.81
2022-07-30T14:10:00.087Z,51.25
2022-07-30T14:15:31.798Z,51.69
2022-07-30T14:21:03.510Z,51.55
2022-07-30T14:26:37.022Z,51.11
2022-07-30T14:32:06.973Z,50.97
2022-07-30T14:37:38.683Z,50.48
2022-07-30T14:43:10.461Z,50.93
2022-07-30T14:48:42.102Z,50.91
2022-07-30T14:54:13.874Z,50.42
2022-07-30T14:59:45.572Z,49.98
2022-07-30T15:05:17.338Z,50.14
2022-07-30T15:10:56.562Z,50.55
2022-07-30T15:16:27.220Z,50.47
2022-07-30T15:21:58.901Z,50.27
2022-07-30T15:27:34.654Z,50.67
2022-07-30T15:33:02.345Z,50.5
2022-07-30T15:38:34.061Z,50.67
2022-07-30T15:44:05.770Z,50.78
2022-07-30T15:49:37.613Z,51.92
2022-07-30T15:55:09.307Z,52.03
2022-07-30T16:00:41.661Z,52.38
2022-07-30T16:06:12.705Z,52.38
2022-07-30T16:11:49.477Z,51.65
2022-07-30T16:17:20.513Z,50.91
2022-07-30T16:22:52.289Z,52.17
2022-07-30T16:28:23.998Z,51.24
2022-07-30T16:33:55.707Z,52.93
2022-07-30T16:39:27.565Z,53.04
2022-07-30T16:44:59.192Z,53.28
2022-07-30T16:50:30.880Z,53.79
2022-07-30T16:56:02.933Z,53.56
2022-07-30T17:01:34.474Z,53.59
2022-07-30T17:07:06.072Z,53.01
2022-07-30T17:12:51.327Z,52.96
2022-07-30T17:18:14.122Z,52.78
2022-07-30T17:23:45.642Z,53.01
2022-07-30T17:29:17.541Z,53.31
2022-07-30T17:34:49.055Z,54.33
2022-07-30T17:40:32.040Z,54.0
2022-07-30T17:45:52.530Z,53.81
2022-07-30T17:51:24.352Z,53.65
2022-07-30T17:56:56.099Z,56.76
2022-07-30T18:02:29.580Z,57.29
2022-07-30T18:07:59.612Z,57.2
2022-07-30T18:13:35.630Z,57.05
2022-07-30T18:19:08.686Z,57.83
2022-07-30T18:24:43.826Z,58.61
2022-07-30T18:30:10.797Z,58.53
2022-07-30T18:35:42.665Z,58.63
2022-07-30T18:41:15.635Z,59.53
2022-07-30T18:46:47.416Z,58.9
2022-07-30T18:52:19.118Z,59.72
2022-07-30T18:57:52.581Z,59.61
2022-07-30T19:03:23.606Z,60.17
2022-07-30T19:08:54.338Z,60.16
2022-07-30T19:14:30.584Z,60.86
2022-07-30T19:20:02.181Z,61.25
2022-07-30T19:25:33.936Z,61.34
2022-07-30T19:31:05.651Z,61.44
2022-07-30T19:36:37.338Z,61.52
2022-07-30T19:42:09.873Z,61.05
2022-07-30T19:47:43.089Z,61.6
2022-07-30T19:53:12.558Z,62.75
2022-07-30T19:58:44.988Z,62.65
2022-07-30T20:04:15.997Z,62.08
2022-07-30T20:09:49.215Z,61.73
2022-07-30T20:15:24.350Z,62.47
2022-07-30T20:20:57.958Z,62.19
2022-07-30T20:26:29.571Z,62.78
2022-07-30T20:31:59.000Z,62.75
2022-07-30T20:37:30.759Z,62.25
2022-07-30T20:43:02.522Z,62.64
2022-07-30T20:48:35.547Z,63.39
2022-07-30T20:54:07.062Z,62.6
2022-07-30T20:59:44.047Z,62.36
2022-07-30T21:05:14.242Z,62.46
2022-07-30T21:10:44.861Z,62.49
2022-07-30T21:16:17.501Z,63.18
2022-07-30T21:22:49.260Z,63.24
2022-07-30T21:27:20.589Z,62.66
2022-07-30T21:32:52.304Z,63.31
2022-07-30T21:38:24.137Z,63.28
2022-07-30T21:43:57.021Z,64.03
2022-07-30T21:49:27.616Z,63.82
2022-07-30T21:55:04.686Z,64.0
2022-07-30T22:00:30.929Z,65.02
2022-07-30T22:06:04.518Z,66.31
2022-07-30T22:11:45.288Z,65.25
2022-07-30T22:17:23.403Z,65.96
2022-07-30T22:22:43.800Z,65.35
2022-07-30T22:28:17.025Z,65.33
2022-07-30T22:33:51.010Z,65.7
2022-07-30T22:39:18.882Z,65.85
2022-07-30T22:44:50.553Z,65.72
2022-07-30T22:50:26.600Z,65.82
2022-07-30T22:55:55.084Z,65.67
2022-07-30T23:01:26.435Z,66.88
2022-07-30T23:06:59.753Z,66.88
2022-07-30T23:12:36.167Z,67.16
2022-07-30T23:18:05.316Z,66.89
2022-07-30T23:23:36.983Z,66.25
2022-07-30T23:29:15.814Z,67.06
2022-07-30T23:34:40.572Z,68.1
2022-07-30T23:40:12.232Z,68.14
2022-07-30T23:45:43.967Z,68.1
2022-07-30T23:51:15.654Z,68.5
2022-07-30T23:56:47.491Z,68.24
